createdAt,value
2019-04-11T00:01:33.988Z,42.40
2019-04-11T00:04:13.592Z,41.97
2019-04-11T00:06:43.714Z,42.03
2019-04-11T00:09:17.202Z,42.00
2019-04-11T00:11:48.159Z,41.00
2019-04-11T00:14:17.977Z,42.10
2019-04-11T00:16:47.747Z,40.50
2019-04-11T00:19:18.970Z,42.87
2019-04-11T00:21:48.934Z,42.50
2019-04-11T00:24:18.729Z,42.80
2019-04-11T00:26:48.672Z,42.17
2019-04-11T00:29:18.457Z,42.10
2019-04-11T00:31:48.057Z,42.03
2019-04-11T00:34:18.549Z,42.93
2019-04-11T00:36:48.475Z,43.23
2019-04-11T00:39:18.075Z,41.47
2019-04-11T00:41:48.259Z,43.60
2019-04-11T00:44:18.777Z,41.77
2019-04-11T00:46:48.857Z,42.07
2019-04-11T00:49:18.722Z,42.03
2019-04-11T00:51:48.363Z,44.07
2019-04-11T00:54:18.494Z,45.07
2019-04-11T00:56:48.460Z,44.93
2019-04-11T00:59:18.279Z,44.77
2019-04-11T01:01:49.925Z,44.10
2019-04-11T01:04:20.015Z,44.97
2019-04-11T01:06:50.151Z,45.57
2019-04-11T01:09:20.088Z,46.30
2019-04-11T01:11:49.777Z,43.57
2019-04-11T01:14:19.467Z,41.17
2019-04-11T01:16:50.972Z,40.10
2019-04-11T01:19:20.562Z,39.07
2019-04-11T01:21:50.914Z,37.50
2019-04-11T01:24:21.706Z,36.70
2019-04-11T01:26:51.800Z,35.87
2019-04-11T01:29:21.551Z,34.53
2019-04-11T01:31:54.515Z,34.60
2019-04-11T01:34:24.525Z,33.90
2019-04-11T01:36:55.483Z,34.50
2019-04-11T01:39:41.316Z,33.10
2019-04-11T01:42:11.118Z,33.97
2019-04-11T01:45:01.033Z,32.83
2019-04-11T01:47:48.542Z,30.97
2019-04-11T01:50:23.049Z,30.80
2019-04-11T01:52:53.177Z,32.27
2019-04-11T01:55:22.716Z,32.10
2019-04-11T01:57:52.223Z,30.80
2019-04-11T02:00:46.917Z,29.53
2019-04-11T02:03:19.319Z,29.27
2019-04-11T02:05:49.496Z,29.80
2019-04-11T02:08:19.622Z,30.80
2019-04-11T02:10:50.800Z,29.20
2019-04-11T02:13:20.767Z,29.77
2019-04-11T02:15:50.527Z,29.23
2019-04-11T02:18:21.423Z,28.33
2019-04-11T02:20:51.385Z,30.43
2019-04-11T02:23:41.380Z,29.00
2019-04-11T02:26:22.018Z,29.10
2019-04-11T02:28:51.691Z,28.90
2019-04-11T02:31:22.813Z,28.00
2019-04-11T02:33:52.754Z,27.97
2019-04-11T02:36:22.627Z,27.57
2019-04-11T02:38:58.829Z,26.17
2019-04-11T02:41:27.380Z,25.53
2019-04-11T02:43:59.266Z,26.93
2019-04-11T02:46:41.528Z,25.93
2019-04-11T02:49:01.536Z,25.60
2019-04-11T02:51:32.276Z,25.90
2019-04-11T02:54:02.284Z,26.00
2019-04-11T02:56:33.474Z,25.80
2019-04-11T02:59:05.167Z,26.03
2019-04-11T03:01:36.456Z,27.03
2019-04-11T03:04:07.289Z,27.77
2019-04-11T03:06:37.079Z,26.30
2019-04-11T03:09:07.791Z,26.93
2019-04-11T03:11:38.693Z,26.47
2019-04-11T03:14:09.786Z,26.30
2019-04-11T03:16:53.085Z,25.87
2019-04-11T03:19:28.055Z,25.90
2019-04-11T03:21:46.397Z,26.67
2019-04-11T03:24:15.461Z,25.73
2019-04-11T03:26:46.160Z,28.33
2019-04-11T03:29:17.611Z,28.60
2019-04-11T03:32:33.741Z,26.83
2019-04-11T03:37:19.245Z,26.80
2019-04-11T03:39:45.787Z,27.07
2019-04-11T03:42:11.219Z,25.97
2019-04-11T03:44:33.547Z,26.53
2019-04-11T03:47:11.308Z,26.80
2019-04-11T03:49:39.796Z,26.47
2019-04-11T03:52:01.293Z,27.53
2019-04-11T03:54:31.874Z,26.90
2019-04-11T03:57:03.573Z,26.83
2019-04-11T03:59:34.297Z,26.50
2019-04-11T04:02:05.798Z,26.90
2019-04-11T04:04:37.178Z,26.60
2019-04-11T04:07:08.932Z,27.33
2019-04-11T04:09:39.665Z,26.63
2019-04-11T04:12:11.415Z,27.03
2019-04-11T04:15:09.086Z,26.60
2019-04-11T04:18:05.425Z,27.10
2019-04-11T04:20:53.130Z,25.80
2019-04-11T04:23:29.629Z,24.53
2019-04-11T04:26:01.027Z,26.30
2019-04-11T04:28:31.751Z,24.63
2019-04-11T04:31:02.291Z,25.17
2019-04-11T04:33:33.783Z,26.43
2019-04-11T04:36:06.622Z,25.50
2019-04-11T04:38:35.570Z,25.37
2019-04-11T04:41:20.034Z,25.40
2019-04-11T04:43:38.867Z,25.80
2019-04-11T04:46:26.249Z,25.57
2019-04-11T04:48:41.134Z,25.57
2019-04-11T04:51:13.556Z,24.83
2019-04-11T04:53:43.027Z,26.80
2019-04-11T04:56:13.450Z,25.77
2019-04-11T04:58:44.434Z,27.20
2019-04-11T05:01:15.207Z,26.40
2019-04-11T05:03:46.763Z,26.50
2019-04-11T05:06:18.486Z,25.77
2019-04-11T05:08:49.205Z,25.83
2019-04-11T05:11:19.083Z,25.20
2019-04-11T05:13:51.341Z,26.40
2019-04-11T05:16:20.281Z,26.13
2019-04-11T05:18:50.495Z,25.87
2019-04-11T05:21:21.198Z,24.63
2019-04-11T05:23:52.074Z,25.17
2019-04-11T05:26:22.209Z,24.40
2019-04-11T05:28:52.972Z,24.70
2019-04-11T05:31:23.048Z,25.43
2019-04-11T05:33:53.827Z,24.97
2019-04-11T05:36:23.455Z,23.97
2019-04-11T05:38:53.006Z,23.70
2019-04-11T05:41:23.568Z,23.30
2019-04-11T05:43:53.845Z,23.43
2019-04-11T05:46:32.780Z,23.10
2019-04-11T05:49:01.042Z,23.07
2019-04-11T05:51:38.991Z,21.93
2019-04-11T05:54:07.463Z,21.77
2019-04-11T05:56:35.343Z,22.00
2019-04-11T05:59:14.690Z,21.37
2019-04-11T06:01:48.798Z,21.83
2019-04-11T06:04:28.196Z,21.27
2019-04-11T06:07:00.137Z,20.93
2019-04-11T06:09:34.826Z,20.90
2019-04-11T06:12:21.244Z,20.83
2019-04-11T06:15:02.011Z,20.73
2019-04-11T06:17:32.360Z,21.60
2019-04-11T06:20:34.004Z,23.30
2019-04-11T06:23:23.470Z,21.23
2019-04-11T06:26:06.703Z,21.40
2019-04-11T06:28:36.110Z,20.40
2019-04-11T06:31:24.864Z,21.07
2019-04-11T06:34:00.790Z,21.63
2019-04-11T06:36:57.146Z,21.17
2019-04-11T06:39:33.546Z,20.67
2019-04-11T06:42:37.374Z,20.93
2019-04-11T06:45:30.033Z,20.43
2019-04-11T06:48:18.077Z,21.43
2019-04-11T06:50:59.664Z,20.93
2019-04-11T06:53:36.566Z,21.00
2019-04-11T06:56:18.964Z,21.13
2019-04-11T06:59:01.657Z,21.73
2019-04-11T07:01:31.690Z,20.47
2019-04-11T07:04:33.683Z,21.53
2019-04-11T07:07:06.777Z,20.23
2019-04-11T07:09:41.437Z,21.67
2019-04-11T07:12:18.202Z,21.67
2019-04-11T07:15:10.178Z,21.90
2019-04-11T07:17:58.839Z,21.50
2019-04-11T07:21:00.721Z,21.20
2019-04-11T07:23:49.107Z,21.43
2019-04-11T07:26:43.886Z,21.63
2019-04-11T07:29:33.592Z,20.77
2019-04-11T07:32:22.368Z,22.43
2019-04-11T07:35:29.441Z,21.87
2019-04-11T07:38:01.056Z,21.00
2019-04-11T07:41:00.685Z,21.93
2019-04-11T07:43:39.455Z,23.10
2019-04-11T07:46:19.917Z,21.43
2019-04-11T07:48:50.538Z,21.80
2019-04-11T07:51:30.392Z,22.70
2019-04-11T07:54:23.870Z,22.73
2019-04-11T07:56:56.241Z,22.17
2019-04-11T07:59:38.190Z,22.43
2019-04-11T08:02:26.931Z,23.50
2019-04-11T08:05:14.052Z,22.77
2019-04-11T08:08:01.367Z,23.20
2019-04-11T08:10:38.801Z,22.23
2019-04-11T08:13:12.385Z,23.63
2019-04-11T08:16:00.041Z,23.20
2019-04-11T08:18:47.027Z,22.43
2019-04-11T08:21:35.768Z,23.80
2019-04-11T08:24:08.001Z,23.70
2019-04-11T08:26:55.419Z,24.47
2019-04-11T08:29:27.026Z,22.03
2019-04-11T08:32:14.108Z,22.97
2019-04-11T08:34:51.356Z,23.67
2019-04-11T08:37:51.783Z,24.47
2019-04-11T08:40:21.871Z,23.60
2019-04-11T08:43:08.756Z,23.37
2019-04-11T08:45:42.329Z,25.10
2019-04-11T08:48:12.883Z,22.30
2019-04-11T08:50:45.372Z,23.00
2019-04-11T08:53:33.043Z,23.43
2019-04-11T08:56:03.939Z,23.70
2019-04-11T08:59:05.647Z,24.13
2019-04-11T09:01:36.011Z,24.67
2019-04-11T09:04:30.847Z,23.27
2019-04-11T09:07:01.067Z,24.73
2019-04-11T09:09:53.669Z,23.03
2019-04-11T09:12:28.716Z,23.93
2019-04-11T09:15:32.963Z,24.73
2019-04-11T09:18:10.358Z,23.80
2019-04-11T09:20:56.427Z,24.10
2019-04-11T09:23:27.882Z,23.97
2019-04-11T09:26:28.890Z,25.17
2019-04-11T09:28:59.901Z,24.63
2019-04-11T09:31:49.409Z,25.47
2019-04-11T09:34:44.210Z,26.07
2019-04-11T09:37:27.425Z,25.97
2019-04-11T09:40:26.288Z,25.37
2019-04-11T09:43:17.781Z,24.60
2019-04-11T09:45:56.270Z,25.00
2019-04-11T09:48:44.807Z,28.60
2019-04-11T09:51:40.244Z,25.43
2019-04-11T09:54:28.344Z,26.40
2019-04-11T09:57:16.373Z,26.17
2019-04-11T10:00:03.900Z,25.67
2019-04-11T10:02:52.817Z,23.93
2019-04-11T10:05:27.416Z,25.27
2019-04-11T10:08:14.886Z,25.47
2019-04-11T10:11:02.169Z,25.77
2019-04-11T10:13:49.626Z,25.87
2019-04-11T10:16:48.298Z,24.57
2019-04-11T10:19:42.203Z,23.93
2019-04-11T10:22:36.713Z,24.93
2019-04-11T10:25:13.283Z,24.40
2019-04-11T10:28:02.767Z,24.30
2019-04-11T10:30:50.399Z,23.47
2019-04-11T10:33:41.976Z,23.67
2019-04-11T10:36:23.180Z,24.50
2019-04-11T10:39:11.684Z,23.73
2019-04-11T10:41:44.087Z,24.30
2019-04-11T10:44:16.256Z,24.03
2019-04-11T10:47:05.658Z,24.00
2019-04-11T10:49:52.629Z,23.60
2019-04-11T10:52:28.793Z,25.07
2019-04-11T10:55:29.462Z,24.70
2019-04-11T10:58:21.586Z,25.20
2019-04-11T11:01:19.881Z,24.47
2019-04-11T11:04:01.161Z,24.90
2019-04-11T11:06:31.522Z,25.40
2019-04-11T11:09:18.380Z,25.40
2019-04-11T11:11:54.914Z,24.70
2019-04-11T11:14:45.012Z,25.70
2019-04-11T11:18:04.373Z,25.63
2019-04-11T11:20:38.499Z,24.90
2019-04-11T11:23:27.272Z,25.33
2019-04-11T11:26:07.034Z,24.33
2019-04-11T11:28:44.573Z,25.77
2019-04-11T11:31:36.480Z,25.40
2019-04-11T11:34:09.149Z,25.60
2019-04-11T11:37:07.094Z,26.00
2019-04-11T11:40:02.574Z,25.33
2019-04-11T11:43:04.199Z,25.30
2019-04-11T11:45:54.703Z,25.30
2019-04-11T11:48:59.330Z,25.67
2019-04-11T11:51:33.254Z,26.37
2019-04-11T11:54:07.169Z,25.60
2019-04-11T11:56:38.164Z,26.00
2019-04-11T11:59:21.003Z,25.40
2019-04-11T12:01:56.207Z,25.87
2019-04-11T12:04:44.296Z,25.40
2019-04-11T12:07:16.756Z,25.77
2019-04-11T12:10:11.667Z,25.10
2019-04-11T12:13:04.396Z,26.00
2019-04-11T12:15:55.191Z,25.63
2019-04-11T12:18:32.943Z,24.63
2019-04-11T12:21:05.210Z,24.13
2019-04-11T12:24:00.657Z,25.73
2019-04-11T12:26:28.874Z,24.53
2019-04-11T12:29:15.724Z,26.03
2019-04-11T12:31:50.141Z,24.90
2019-04-11T12:34:41.021Z,27.53
2019-04-11T12:37:19.781Z,26.90
2019-04-11T12:40:14.782Z,24.87
2019-04-11T12:42:44.381Z,24.90
2019-04-11T12:45:39.956Z,25.60
2019-04-11T12:48:11.936Z,28.37
2019-04-11T12:51:16.209Z,24.47
2019-04-11T12:53:47.294Z,24.93
2019-04-11T12:56:26.525Z,25.47
2019-04-11T12:59:02.065Z,25.17
2019-04-11T13:01:49.476Z,24.50
2019-04-11T13:04:45.211Z,24.07
2019-04-11T13:07:28.688Z,24.80
2019-04-11T13:10:01.080Z,24.07
2019-04-11T13:12:55.765Z,25.40
2019-04-11T13:15:48.928Z,24.67
2019-04-11T13:18:39.370Z,25.37
2019-04-11T13:21:33.962Z,25.40
2019-04-11T13:24:25.406Z,25.77
2019-04-11T13:27:18.542Z,24.57
2019-04-11T13:30:19.644Z,24.47
2019-04-11T13:32:51.014Z,24.93
2019-04-11T13:35:38.282Z,26.40
2019-04-11T13:38:10.492Z,26.03
2019-04-11T13:41:02.005Z,24.83
2019-04-11T13:43:56.314Z,24.03
2019-04-11T13:46:47.787Z,24.83
2019-04-11T13:49:42.882Z,24.97
2019-04-11T13:52:34.337Z,24.33
2019-04-11T13:55:12.569Z,24.60
2019-04-11T13:58:01.164Z,23.60
2019-04-11T14:00:47.677Z,25.67
2019-04-11T14:03:48.546Z,23.63
2019-04-11T14:06:50.991Z,23.13
2019-04-11T14:09:37.362Z,23.77
2019-04-11T14:12:12.147Z,24.43
2019-04-11T14:14:48.872Z,24.37
2019-04-11T14:17:41.437Z,22.50
2019-04-11T14:20:15.918Z,23.63
2019-04-11T14:23:04.395Z,23.93
2019-04-11T14:26:11.106Z,23.27
2019-04-11T14:28:49.679Z,24.53
2019-04-11T14:31:54.088Z,24.97
2019-04-11T14:34:46.063Z,23.73
2019-04-11T14:37:46.698Z,25.10
2019-04-11T14:40:32.250Z,24.57
2019-04-11T14:43:21.723Z,23.27
2019-04-11T14:46:16.051Z,24.03
2019-04-11T14:48:48.579Z,24.37
2019-04-11T14:51:40.481Z,24.00
2019-04-11T14:54:18.284Z,25.10
2019-04-11T14:56:59.678Z,26.33
2019-04-11T14:59:34.274Z,25.27
2019-04-11T15:02:25.671Z,25.43
2019-04-11T15:05:20.196Z,25.77
2019-04-11T15:07:52.323Z,23.97
2019-04-11T15:10:49.567Z,27.10
2019-04-11T15:13:22.667Z,25.47
2019-04-11T15:16:17.185Z,24.77
2019-04-11T15:18:55.247Z,24.43
2019-04-11T15:21:42.208Z,24.30
2019-04-11T15:24:12.794Z,24.37
2019-04-11T15:27:04.164Z,24.07
2019-04-11T15:29:36.587Z,23.47
2019-04-11T15:32:35.517Z,23.37
2019-04-11T15:35:11.404Z,23.43
2019-04-11T15:38:10.315Z,23.93
2019-04-11T15:40:43.475Z,23.83
2019-04-11T15:43:42.148Z,23.23
2019-04-11T15:46:29.065Z,21.87
2019-04-11T15:49:24.693Z,22.97
2019-04-11T15:52:14.728Z,24.03
2019-04-11T15:54:52.459Z,24.77
2019-04-11T15:57:43.021Z,24.83
2019-04-11T16:00:31.791Z,22.40
2019-04-11T16:03:24.430Z,22.33
2019-04-11T16:06:21.086Z,23.03
2019-04-11T16:08:56.069Z,23.30
2019-04-11T16:11:53.624Z,26.80
2019-04-11T16:14:29.057Z,29.00
2019-04-11T16:17:20.672Z,23.37
2019-04-11T16:19:55.614Z,22.80
2019-04-11T16:22:59.333Z,22.93
2019-04-11T16:25:32.507Z,24.07
2019-04-11T16:28:20.081Z,24.90
2019-04-11T16:30:51.803Z,23.80
2019-04-11T16:33:40.285Z,23.50
2019-04-11T16:36:28.870Z,23.77
2019-04-11T16:39:21.692Z,22.60
2019-04-11T16:41:57.236Z,24.57
2019-04-11T16:44:57.826Z,22.33
2019-04-11T16:47:56.242Z,21.83
2019-04-11T16:50:25.126Z,21.53
2019-04-11T16:52:55.375Z,22.60
2019-04-11T16:55:25.048Z,21.10
2019-04-11T16:57:55.002Z,23.20
2019-04-11T17:00:24.694Z,21.10
2019-04-11T17:02:54.993Z,21.97
2019-04-11T17:05:26.854Z,23.03
2019-04-11T17:08:15.432Z,22.53
2019-04-11T17:11:08.534Z,26.07
2019-04-11T17:13:38.200Z,26.57
2019-04-11T17:16:16.478Z,28.67
2019-04-11T17:18:46.111Z,27.13
2019-04-11T17:21:15.844Z,26.83
2019-04-11T17:23:47.185Z,27.10
2019-04-11T17:26:16.904Z,26.83
2019-04-11T17:28:46.648Z,27.17
2019-04-11T17:31:18.498Z,29.30
2019-04-11T17:33:48.218Z,29.07
2019-04-11T17:36:21.412Z,29.70
2019-04-11T17:38:51.766Z,30.40
2019-04-11T17:41:21.494Z,27.40
2019-04-11T17:43:51.746Z,27.83
2019-04-11T17:46:21.734Z,29.77
2019-04-11T17:48:51.347Z,29.30
2019-04-11T17:51:21.356Z,28.53
2019-04-11T17:53:54.722Z,27.73
2019-04-11T17:56:24.688Z,38.70
2019-04-11T17:58:57.719Z,28.80
2019-04-11T18:01:25.248Z,25.07
2019-04-11T18:03:55.014Z,22.40
2019-04-11T18:06:24.822Z,23.70
2019-04-11T18:08:54.943Z,23.13
2019-04-11T18:11:26.201Z,22.93
2019-04-11T18:13:56.110Z,23.60
2019-04-11T18:16:25.783Z,24.00
2019-04-11T18:18:55.499Z,25.10
2019-04-11T18:21:25.280Z,24.60
2019-04-11T18:23:55.019Z,24.63
2019-04-11T18:26:24.707Z,23.23
2019-04-11T18:28:54.579Z,23.67
2019-04-11T18:31:25.032Z,24.40
2019-04-11T18:33:55.190Z,25.00
2019-04-11T18:36:24.952Z,24.53
2019-04-11T18:38:55.132Z,24.57
2019-04-11T18:41:24.774Z,25.23
2019-04-11T18:43:54.623Z,24.50
2019-04-11T18:46:24.190Z,23.87
2019-04-11T18:48:54.596Z,23.27
2019-04-11T18:51:24.177Z,24.70
2019-04-11T18:53:53.767Z,23.57
2019-04-11T18:56:23.417Z,23.70
2019-04-11T18:58:53.569Z,23.63
2019-04-11T19:01:23.217Z,24.73
2019-04-11T19:03:52.797Z,24.60
2019-04-11T19:06:27.651Z,23.43
2019-04-11T19:08:53.735Z,23.00
2019-04-11T19:11:24.871Z,22.90
2019-04-11T19:13:54.427Z,23.80
2019-04-11T19:16:24.263Z,24.40
2019-04-11T19:18:53.938Z,24.23
2019-04-11T19:21:23.677Z,24.17
2019-04-11T19:23:53.385Z,24.80
2019-04-11T19:26:23.137Z,24.97
2019-04-11T19:28:54.959Z,25.03
2019-04-11T19:31:27.252Z,24.93
2019-04-11T19:33:55.829Z,24.23
2019-04-11T19:36:25.614Z,24.53
2019-04-11T19:38:55.195Z,25.00
2019-04-11T19:41:25.088Z,24.33
2019-04-11T19:43:55.313Z,24.33
2019-04-11T19:46:24.869Z,24.90
2019-04-11T19:48:59.024Z,24.67
2019-04-11T19:51:28.525Z,24.43
2019-04-11T19:53:57.619Z,25.10
2019-04-11T19:56:37.904Z,26.10
2019-04-11T19:59:07.411Z,26.07
2019-04-11T20:01:37.432Z,22.27
2019-04-11T20:04:07.174Z,21.17
2019-04-11T20:06:36.922Z,22.07
2019-04-11T20:09:08.006Z,21.00
2019-04-11T20:11:37.763Z,20.23
2019-04-11T20:14:07.975Z,21.97
2019-04-11T20:16:41.972Z,19.77
2019-04-11T20:19:09.512Z,19.67
2019-04-11T20:21:39.448Z,20.60
2019-04-11T20:24:09.110Z,20.60
2019-04-11T20:26:38.790Z,21.33
2019-04-11T20:29:08.410Z,21.17
2019-04-11T20:31:37.982Z,20.03
2019-04-11T20:34:08.213Z,20.07
2019-04-11T20:36:40.846Z,20.43
2019-04-11T20:39:10.184Z,20.33
2019-04-11T20:41:39.914Z,19.77
2019-04-11T20:44:09.537Z,20.37
2019-04-11T20:46:39.084Z,19.87
2019-04-11T20:49:09.045Z,19.73
2019-04-11T20:51:38.695Z,19.53
2019-04-11T20:54:08.322Z,17.57
2019-04-11T20:56:40.394Z,18.33
2019-04-11T20:59:10.369Z,16.77
2019-04-11T21:01:40.674Z,17.20
2019-04-11T21:04:10.439Z,17.40
2019-04-11T21:06:40.106Z,15.97
2019-04-11T21:09:12.606Z,16.37
2019-04-11T21:11:45.110Z,15.90
2019-04-11T21:14:14.861Z,15.07
2019-04-11T21:16:44.527Z,15.30
2019-04-11T21:19:14.465Z,15.47
2019-04-11T21:21:44.030Z,15.33
2019-04-11T21:24:13.790Z,14.60
2019-04-11T21:26:43.462Z,14.63
2019-04-11T21:29:15.358Z,14.40
2019-04-11T21:31:44.995Z,14.50
2019-04-11T21:34:14.624Z,14.97
2019-04-11T21:36:44.268Z,15.17
2019-04-11T21:39:13.895Z,14.47
2019-04-11T21:41:45.324Z,14.43
2019-04-11T21:44:14.824Z,14.70
2019-04-11T21:46:53.947Z,14.80
2019-04-11T21:49:23.455Z,14.90
2019-04-11T21:51:53.066Z,14.40
2019-04-11T21:54:22.981Z,15.50
2019-04-11T21:56:52.867Z,14.57
2019-04-11T21:59:22.638Z,15.23
2019-04-11T22:01:54.103Z,15.00
2019-04-11T22:04:26.878Z,14.93
2019-04-11T22:06:54.662Z,15.37
2019-04-11T22:09:24.315Z,14.73
2019-04-11T22:11:53.879Z,14.17
2019-04-11T22:14:34.667Z,15.13
2019-04-11T22:17:04.215Z,15.30
2019-04-11T22:19:52.711Z,14.13
2019-04-11T22:22:23.923Z,14.50
2019-04-11T22:24:55.755Z,14.57
2019-04-11T22:27:26.331Z,15.00
2019-04-11T22:29:57.705Z,15.20
2019-04-11T22:32:29.647Z,14.30
2019-04-11T22:35:00.517Z,14.70
2019-04-11T22:37:30.690Z,14.13
2019-04-11T22:40:02.729Z,13.90
2019-04-11T22:42:39.995Z,14.07
2019-04-11T22:45:09.647Z,15.80
2019-04-11T22:47:39.289Z,14.67
2019-04-11T22:50:10.067Z,14.77
2019-04-11T22:52:42.237Z,14.23
2019-04-11T22:55:11.928Z,15.00
2019-04-11T22:57:43.758Z,14.70
2019-04-11T23:00:15.818Z,14.87
2019-04-11T23:02:51.231Z,15.00
2019-04-11T23:05:21.925Z,15.50
2019-04-11T23:07:51.825Z,14.63
2019-04-11T23:10:21.475Z,14.63
2019-04-11T23:12:51.147Z,14.50
2019-04-11T23:15:20.794Z,14.00
2019-04-11T23:17:50.944Z,14.77
2019-04-11T23:20:22.972Z,14.77
2019-04-11T23:22:52.749Z,14.70
2019-04-11T23:25:23.629Z,14.30
2019-04-11T23:27:54.263Z,15.00
2019-04-11T23:30:26.686Z,14.77
2019-04-11T23:32:58.014Z,14.10
2019-04-11T23:35:27.622Z,16.10
2019-04-11T23:38:01.176Z,15.40
2019-04-11T23:40:31.187Z,15.40
2019-04-11T23:43:01.407Z,15.60
2019-04-11T23:45:31.194Z,15.80
2019-04-11T23:48:00.715Z,15.57
2019-04-11T23:50:30.256Z,15.30
2019-04-11T23:53:00.222Z,14.70
2019-04-11T23:55:30.731Z,14.50
2019-04-11T23:58:01.769Z,14.87
